sensor_id;sensor_type;location;lat;lon;timestamp;P1;durP1;ratioP1;P2;durP2;ratioP2
3597;SDS011;1813;52.016;8.714;2023-03-17T00:02:01;7.37;;;5.57;;
3597;SDS011;1813;52.016;8.714;2023-03-17T00:04:36;7.87;;;5.70;;
3597;SDS011;1813;52.016;8.714;2023-03-17T00:07:10;7.50;;;5.40;;
3597;SDS011;1813;52.016;8.714;2023-03-17T00:09:49;7.20;;;5.50;;
3597;SDS011;1813;52.016;8.714;2023-03-17T00:12:23;6.47;;;5.40;;
3597;SDS011;1813;52.016;8.714;2023-03-17T00:14:59;7.57;;;5.50;;
3597;SDS011;1813;52.016;8.714;2023-03-17T00:17:36;7.20;;;5.10;;
3597;SDS011;1813;52.016;8.714;2023-03-17T00:20:22;7.20;;;5.40;;
3597;SDS011;1813;52.016;8.714;2023-03-17T00:22:57;5.40;;;4.70;;
3597;SDS011;1813;52.016;8.714;2023-03-17T00:25:36;6.00;;;5.07;;
3597;SDS011;1813;52.016;8.714;2023-03-17T00:28:14;10.07;;;5.90;;
3597;SDS011;1813;52.016;8.714;2023-03-17T00:30:51;6.67;;;5.10;;
3597;SDS011;1813;52.016;8.714;2023-03-17T00:33:33;7.57;;;5.40;;
3597;SDS011;1813;52.016;8.714;2023-03-17T00:36:08;7.00;;;5.00;;
3597;SDS011;1813;52.016;8.714;2023-03-17T00:38:46;6.20;;;4.53;;
3597;SDS011;1813;52.016;8.714;2023-03-17T00:41:21;6.83;;;5.23;;
3597;SDS011;1813;52.016;8.714;2023-03-17T00:43:56;8.40;;;5.70;;
3597;SDS011;1813;52.016;8.714;2023-03-17T00:46:31;8.90;;;5.33;;
3597;SDS011;1813;52.016;8.714;2023-03-17T00:49:13;7.67;;;5.43;;
3597;SDS011;1813;52.016;8.714;2023-03-17T00:51:49;7.37;;;5.03;;
3597;SDS011;1813;52.016;8.714;2023-03-17T00:54:27;11.43;;;5.27;;
3597;SDS011;1813;52.016;8.714;2023-03-17T00:57:03;7.57;;;5.50;;
3597;SDS011;1813;52.016;8.714;2023-03-17T00:59:42;8.87;;;5.77;;
3597;SDS011;1813;52.016;8.714;2023-03-17T01:02:16;6.40;;;5.40;;
3597;SDS011;1813;52.016;8.714;2023-03-17T01:04:53;8.90;;;5.40;;
3597;SDS011;1813;52.016;8.714;2023-03-17T01:07:27;8.40;;;5.43;;
3597;SDS011;1813;52.016;8.714;2023-03-17T01:10:03;5.77;;;4.87;;
3597;SDS011;1813;52.016;8.714;2023-03-17T01:12:43;6.83;;;4.73;;
3597;SDS011;1813;52.016;8.714;2023-03-17T01:15:18;7.80;;;5.40;;
3597;SDS011;1813;52.016;8.714;2023-03-17T01:17:54;6.60;;;4.80;;
3597;SDS011;1813;52.016;8.714;2023-03-17T01:20:32;7.03;;;4.70;;
3597;SDS011;1813;52.016;8.714;2023-03-17T01:23:06;6.27;;;4.87;;
3597;SDS011;1813;52.016;8.714;2023-03-17T01:25:42;9.60;;;5.30;;
3597;SDS011;1813;52.016;8.714;2023-03-17T01:28:21;7.57;;;4.80;;
3597;SDS011;1813;52.016;8.714;2023-03-17T01:31:00;6.73;;;5.23;;
3597;SDS011;1813;52.016;8.714;2023-03-17T01:33:36;9.20;;;4.90;;
3597;SDS011;1813;52.016;8.714;2023-03-17T01:36:13;6.90;;;5.57;;
3597;SDS011;1813;52.016;8.714;2023-03-17T01:38:48;11.60;;;6.07;;
3597;SDS011;1813;52.016;8.714;2023-03-17T01:41:22;8.27;;;6.10;;
3597;SDS011;1813;52.016;8.714;2023-03-17T01:43:56;6.30;;;5.20;;
3597;SDS011;1813;52.016;8.714;2023-03-17T01:46:30;8.17;;;5.80;;
3597;SDS011;1813;52.016;8.714;2023-03-17T01:49:13;8.53;;;6.20;;
3597;SDS011;1813;52.016;8.714;2023-03-17T01:51:55;9.60;;;5.50;;
3597;SDS011;1813;52.016;8.714;2023-03-17T01:54:36;8.90;;;5.57;;
3597;SDS011;1813;52.016;8.714;2023-03-17T01:57:22;6.97;;;5.73;;
3597;SDS011;1813;52.016;8.714;2023-03-17T02:00:02;7.90;;;5.70;;
3597;SDS011;1813;52.016;8.714;2023-03-17T02:02:48;7.50;;;5.10;;
3597;SDS011;1813;52.016;8.714;2023-03-17T02:05:25;8.63;;;5.87;;
3597;SDS011;1813;52.016;8.714;2023-03-17T02:08:07;8.60;;;5.20;;
3597;SDS011;1813;52.016;8.714;2023-03-17T02:10:43;7.17;;;5.90;;
3597;SDS011;1813;52.016;8.714;2023-03-17T02:13:21;8.30;;;5.43;;
3597;SDS011;1813;52.016;8.714;2023-03-17T02:15:57;7.20;;;5.43;;
3597;SDS011;1813;52.016;8.714;2023-03-17T02:18:31;8.43;;;5.00;;
3597;SDS011;1813;52.016;8.714;2023-03-17T02:21:25;9.23;;;5.80;;
3597;SDS011;1813;52.016;8.714;2023-03-17T02:24:02;7.17;;;5.20;;
3597;SDS011;1813;52.016;8.714;2023-03-17T02:26:40;11.93;;;5.97;;
3597;SDS011;1813;52.016;8.714;2023-03-17T02:29:18;10.07;;;5.37;;
3597;SDS011;1813;52.016;8.714;2023-03-17T02:31:54;7.60;;;5.77;;
3597;SDS011;1813;52.016;8.714;2023-03-17T02:34:28;9.70;;;5.67;;
3597;SDS011;1813;52.016;8.714;2023-03-17T02:37:08;10.63;;;5.90;;
3597;SDS011;1813;52.016;8.714;2023-03-17T02:39:47;8.13;;;5.90;;
3597;SDS011;1813;52.016;8.714;2023-03-17T02:42:23;7.60;;;5.80;;
3597;SDS011;1813;52.016;8.714;2023-03-17T02:44:57;7.83;;;5.93;;
3597;SDS011;1813;52.016;8.714;2023-03-17T02:47:31;7.97;;;5.57;;
3597;SDS011;1813;52.016;8.714;2023-03-17T02:50:08;8.13;;;5.43;;
3597;SDS011;1813;52.016;8.714;2023-03-17T02:52:52;8.50;;;5.40;;
3597;SDS011;1813;52.016;8.714;2023-03-17T02:55:29;9.90;;;5.47;;
3597;SDS011;1813;52.016;8.714;2023-03-17T02:58:03;8.70;;;5.97;;
3597;SDS011;1813;52.016;8.714;2023-03-17T03:00:37;9.63;;;5.90;;
3597;SDS011;1813;52.016;8.714;2023-03-17T03:03:11;8.60;;;5.93;;
3597;SDS011;1813;52.016;8.714;2023-03-17T03:05:45;7.10;;;5.53;;
3597;SDS011;1813;52.016;8.714;2023-03-17T03:08:25;7.47;;;5.70;;
3597;SDS011;1813;52.016;8.714;2023-03-17T03:10:58;7.23;;;5.90;;
3597;SDS011;1813;52.016;8.714;2023-03-17T03:13:34;7.87;;;5.80;;
3597;SDS011;1813;52.016;8.714;2023-03-17T03:16:10;8.83;;;6.13;;
3597;SDS011;1813;52.016;8.714;2023-03-17T03:18:44;7.70;;;6.17;;
3597;SDS011;1813;52.016;8.714;2023-03-17T03:21:17;10.00;;;6.23;;
3597;SDS011;1813;52.016;8.714;2023-03-17T03:23:55;18.53;;;6.33;;
3597;SDS011;1813;52.016;8.714;2023-03-17T03:26:29;9.03;;;6.23;;
3597;SDS011;1813;52.016;8.714;2023-03-17T03:29:04;8.83;;;6.30;;
3597;SDS011;1813;52.016;8.714;2023-03-17T03:31:38;8.83;;;5.97;;
3597;SDS011;1813;52.016;8.714;2023-03-17T03:34:13;9.90;;;6.37;;
3597;SDS011;1813;52.016;8.714;2023-03-17T03:36:47;7.83;;;6.07;;
3597;SDS011;1813;52.016;8.714;2023-03-17T03:39:24;8.23;;;5.73;;
3597;SDS011;1813;52.016;8.714;2023-03-17T03:41:57;7.50;;;5.90;;
3597;SDS011;1813;52.016;8.714;2023-03-17T03:44:31;7.80;;;5.97;;
3597;SDS011;1813;52.016;8.714;2023-03-17T03:47:06;9.80;;;6.43;;
3597;SDS011;1813;52.016;8.714;2023-03-17T03:49:41;9.43;;;6.80;;
3597;SDS011;1813;52.016;8.714;2023-03-17T03:52:15;8.33;;;6.10;;
3597;SDS011;1813;52.016;8.714;2023-03-17T03:54:52;8.40;;;6.50;;
3597;SDS011;1813;52.016;8.714;2023-03-17T03:57:26;6.63;;;5.90;;
3597;SDS011;1813;52.016;8.714;2023-03-17T04:00:01;8.90;;;6.10;;
3597;SDS011;1813;52.016;8.714;2023-03-17T04:02:42;8.90;;;6.33;;
3597;SDS011;1813;52.016;8.714;2023-03-17T04:05:17;8.10;;;5.87;;
3597;SDS011;1813;52.016;8.714;2023-03-17T04:07:51;12.23;;;5.97;;
3597;SDS011;1813;52.016;8.714;2023-03-17T04:10:29;10.00;;;6.70;;
3597;SDS011;1813;52.016;8.714;2023-03-17T04:13:03;12.03;;;7.10;;
3597;SDS011;1813;52.016;8.714;2023-03-17T04:15:38;7.93;;;6.37;;
3597;SDS011;1813;52.016;8.714;2023-03-17T04:18:12;9.20;;;7.03;;
3597;SDS011;1813;52.016;8.714;2023-03-17T04:20:47;8.63;;;6.40;;
3597;SDS011;1813;52.016;8.714;2023-03-17T04:23:21;9.03;;;6.67;;
3597;SDS011;1813;52.016;8.714;2023-03-17T04:25:57;15.00;;;7.20;;
3597;SDS011;1813;52.016;8.714;2023-03-17T04:28:31;12.07;;;7.00;;
3597;SDS011;1813;52.016;8.714;2023-03-17T04:31:07;9.80;;;6.87;;
3597;SDS011;1813;52.016;8.714;2023-03-17T04:33:42;9.37;;;7.20;;
3597;SDS011;1813;52.016;8.714;2023-03-17T04:36:17;9.90;;;6.70;;
3597;SDS011;1813;52.016;8.714;2023-03-17T04:38:53;10.00;;;6.60;;
3597;SDS011;1813;52.016;8.714;2023-03-17T04:41:31;9.07;;;6.70;;
3597;SDS011;1813;52.016;8.714;2023-03-17T04:44:07;10.70;;;7.53;;
3597;SDS011;1813;52.016;8.714;2023-03-17T04:46:43;12.00;;;7.30;;
3597;SDS011;1813;52.016;8.714;2023-03-17T04:49:17;10.90;;;7.23;;
3597;SDS011;1813;52.016;8.714;2023-03-17T04:51:51;9.33;;;6.73;;
3597;SDS011;1813;52.016;8.714;2023-03-17T04:54:27;9.90;;;6.80;;
3597;SDS011;1813;52.016;8.714;2023-03-17T04:57:03;7.90;;;6.40;;
3597;SDS011;1813;52.016;8.714;2023-03-17T04:59:40;8.97;;;6.67;;
3597;SDS011;1813;52.016;8.714;2023-03-17T05:02:13;8.50;;;6.80;;
3597;SDS011;1813;52.016;8.714;2023-03-17T05:04:48;11.67;;;7.07;;
3597;SDS011;1813;52.016;8.714;2023-03-17T05:07:25;9.10;;;7.00;;
3597;SDS011;1813;52.016;8.714;2023-03-17T05:09:59;9.50;;;6.83;;
3597;SDS011;1813;52.016;8.714;2023-03-17T05:12:36;10.00;;;7.43;;
3597;SDS011;1813;52.016;8.714;2023-03-17T05:15:10;9.47;;;6.90;;
3597;SDS011;1813;52.016;8.714;2023-03-17T05:17:46;9.00;;;6.90;;
3597;SDS011;1813;52.016;8.714;2023-03-17T05:20:20;9.30;;;7.00;;
3597;SDS011;1813;52.016;8.714;2023-03-17T05:22:58;9.40;;;6.90;;
3597;SDS011;1813;52.016;8.714;2023-03-17T05:25:33;8.70;;;6.77;;
3597;SDS011;1813;52.016;8.714;2023-03-17T05:28:11;11.63;;;7.23;;
3597;SDS011;1813;52.016;8.714;2023-03-17T05:30:46;12.03;;;7.83;;
3597;SDS011;1813;52.016;8.714;2023-03-17T05:33:21;10.00;;;7.60;;
3597;SDS011;1813;52.016;8.714;2023-03-17T05:35:58;10.57;;;7.53;;
3597;SDS011;1813;52.016;8.714;2023-03-17T05:38:33;10.57;;;8.03;;
3597;SDS011;1813;52.016;8.714;2023-03-17T05:41:08;10.93;;;7.57;;
3597;SDS011;1813;52.016;8.714;2023-03-17T05:43:45;11.33;;;7.73;;
3597;SDS011;1813;52.016;8.714;2023-03-17T05:46:19;9.90;;;7.50;;
3597;SDS011;1813;52.016;8.714;2023-03-17T05:48:54;13.63;;;8.27;;
3597;SDS011;1813;52.016;8.714;2023-03-17T05:51:29;11.47;;;7.27;;
3597;SDS011;1813;52.016;8.714;2023-03-17T05:54:03;10.83;;;8.10;;
3597;SDS011;1813;52.016;8.714;2023-03-17T05:56:38;11.57;;;7.97;;
3597;SDS011;1813;52.016;8.714;2023-03-17T05:59:14;13.10;;;7.57;;
3597;SDS011;1813;52.016;8.714;2023-03-17T06:01:48;10.30;;;7.10;;
3597;SDS011;1813;52.016;8.714;2023-03-17T06:04:24;9.80;;;7.77;;
3597;SDS011;1813;52.016;8.714;2023-03-17T06:07:01;11.07;;;8.00;;
3597;SDS011;1813;52.016;8.714;2023-03-17T06:09:36;10.67;;;7.70;;
3597;SDS011;1813;52.016;8.714;2023-03-17T06:12:11;10.33;;;6.93;;
3597;SDS011;1813;52.016;8.714;2023-03-17T06:14:47;9.80;;;7.23;;
3597;SDS011;1813;52.016;8.714;2023-03-17T06:17:21;11.87;;;7.80;;
3597;SDS011;1813;52.016;8.714;2023-03-17T06:19:55;14.50;;;7.90;;
3597;SDS011;1813;52.016;8.714;2023-03-17T06:22:31;10.47;;;7.20;;
3597;SDS011;1813;52.016;8.714;2023-03-17T06:25:06;9.23;;;6.93;;
3597;SDS011;1813;52.016;8.714;2023-03-17T06:27:41;10.27;;;7.60;;
3597;SDS011;1813;52.016;8.714;2023-03-17T06:30:18;14.17;;;7.03;;
3597;SDS011;1813;52.016;8.714;2023-03-17T06:32:54;9.07;;;6.27;;
3597;SDS011;1813;52.016;8.714;2023-03-17T06:35:29;9.93;;;7.00;;
3597;SDS011;1813;52.016;8.714;2023-03-17T06:38:04;12.23;;;6.60;;
3597;SDS011;1813;52.016;8.714;2023-03-17T06:40:38;9.30;;;6.60;;
3597;SDS011;1813;52.016;8.714;2023-03-17T06:43:13;11.53;;;7.07;;
3597;SDS011;1813;52.016;8.714;2023-03-17T06:45:51;12.90;;;7.10;;
3597;SDS011;1813;52.016;8.714;2023-03-17T06:48:25;9.43;;;7.30;;
3597;SDS011;1813;52.016;8.714;2023-03-17T06:50:59;19.47;;;7.07;;
3597;SDS011;1813;52.016;8.714;2023-03-17T06:53:34;11.30;;;7.83;;
3597;SDS011;1813;52.016;8.714;2023-03-17T06:56:10;11.40;;;6.90;;
3597;SDS011;1813;52.016;8.714;2023-03-17T06:58:43;8.33;;;6.70;;
3597;SDS011;1813;52.016;8.714;2023-03-17T07:01:20;10.20;;;7.17;;
3597;SDS011;1813;52.016;8.714;2023-03-17T07:03:55;13.50;;;6.83;;
3597;SDS011;1813;52.016;8.714;2023-03-17T07:06:30;11.40;;;6.67;;
3597;SDS011;1813;52.016;8.714;2023-03-17T07:09:05;9.47;;;7.00;;
3597;SDS011;1813;52.016;8.714;2023-03-17T07:11:39;11.30;;;7.00;;
3597;SDS011;1813;52.016;8.714;2023-03-17T07:14:13;12.17;;;7.20;;
3597;SDS011;1813;52.016;8.714;2023-03-17T07:16:50;9.67;;;6.80;;
3597;SDS011;1813;52.016;8.714;2023-03-17T07:19:25;9.13;;;7.07;;
3597;SDS011;1813;52.016;8.714;2023-03-17T07:21:59;10.17;;;7.13;;
3597;SDS011;1813;52.016;8.714;2023-03-17T07:24:33;10.63;;;7.00;;
3597;SDS011;1813;52.016;8.714;2023-03-17T07:27:08;15.23;;;7.40;;
3597;SDS011;1813;52.016;8.714;2023-03-17T07:29:43;17.60;;;6.93;;
3597;SDS011;1813;52.016;8.714;2023-03-17T07:32:20;9.03;;;7.10;;
3597;SDS011;1813;52.016;8.714;2023-03-17T07:34:54;15.53;;;6.80;;
3597;SDS011;1813;52.016;8.714;2023-03-17T07:37:28;10.57;;;5.97;;
3597;SDS011;1813;52.016;8.714;2023-03-17T07:40:02;9.00;;;6.87;;
3597;SDS011;1813;52.016;8.714;2023-03-17T07:42:40;12.90;;;6.60;;
3597;SDS011;1813;52.016;8.714;2023-03-17T07:45:14;8.43;;;6.23;;
3597;SDS011;1813;52.016;8.714;2023-03-17T07:47:55;9.40;;;6.90;;
3597;SDS011;1813;52.016;8.714;2023-03-17T07:50:29;10.67;;;7.23;;
3597;SDS011;1813;52.016;8.714;2023-03-17T07:53:04;7.70;;;6.53;;
3597;SDS011;1813;52.016;8.714;2023-03-17T07:55:40;10.43;;;6.90;;
3597;SDS011;1813;52.016;8.714;2023-03-17T07:58:14;11.73;;;6.60;;
3597;SDS011;1813;52.016;8.714;2023-03-17T08:00:48;11.77;;;6.67;;
3597;SDS011;1813;52.016;8.714;2023-03-17T08:03:24;13.27;;;6.40;;
3597;SDS011;1813;52.016;8.714;2023-03-17T08:05:59;11.30;;;6.20;;
3597;SDS011;1813;52.016;8.714;2023-03-17T08:08:36;8.17;;;6.20;;
3597;SDS011;1813;52.016;8.714;2023-03-17T08:11:11;8.23;;;6.10;;
3597;SDS011;1813;52.016;8.714;2023-03-17T08:13:46;10.07;;;6.47;;
3597;SDS011;1813;52.016;8.714;2023-03-17T08:16:21;10.73;;;6.80;;
3597;SDS011;1813;52.016;8.714;2023-03-17T08:18:58;9.83;;;6.07;;
3597;SDS011;1813;52.016;8.714;2023-03-17T08:21:33;11.67;;;6.20;;
3597;SDS011;1813;52.016;8.714;2023-03-17T08:24:07;9.50;;;6.30;;
3597;SDS011;1813;52.016;8.714;2023-03-17T08:26:41;11.00;;;6.17;;
3597;SDS011;1813;52.016;8.714;2023-03-17T08:29:15;10.70;;;6.13;;
3597;SDS011;1813;52.016;8.714;2023-03-17T08:31:49;8.63;;;6.50;;
3597;SDS011;1813;52.016;8.714;2023-03-17T08:34:27;7.80;;;6.00;;
3597;SDS011;1813;52.016;8.714;2023-03-17T08:37:01;10.33;;;5.83;;
3597;SDS011;1813;52.016;8.714;2023-03-17T08:39:36;7.87;;;5.80;;
3597;SDS011;1813;52.016;8.714;2023-03-17T08:42:10;8.83;;;5.63;;
3597;SDS011;1813;52.016;8.714;2023-03-17T08:44:46;15.33;;;6.10;;
3597;SDS011;1813;52.016;8.714;2023-03-17T08:47:20;8.67;;;6.67;;
3597;SDS011;1813;52.016;8.714;2023-03-17T08:49:56;8.80;;;6.23;;
3597;SDS011;1813;52.016;8.714;2023-03-17T08:52:31;8.80;;;5.53;;
3597;SDS011;1813;52.016;8.714;2023-03-17T08:55:05;9.90;;;5.90;;
3597;SDS011;1813;52.016;8.714;2023-03-17T08:57:40;16.23;;;6.30;;
3597;SDS011;1813;52.016;8.714;2023-03-17T09:00:16;10.80;;;5.80;;
3597;SDS011;1813;52.016;8.714;2023-03-17T09:02:55;10.50;;;5.90;;
3597;SDS011;1813;52.016;8.714;2023-03-17T09:05:32;7.93;;;5.60;;
3597;SDS011;1813;52.016;8.714;2023-03-17T09:08:07;7.40;;;5.37;;
3597;SDS011;1813;52.016;8.714;2023-03-17T09:10:41;11.10;;;5.93;;
3597;SDS011;1813;52.016;8.714;2023-03-17T09:13:15;7.53;;;5.43;;
3597;SDS011;1813;52.016;8.714;2023-03-17T09:15:49;9.00;;;5.67;;
3597;SDS011;1813;52.016;8.714;2023-03-17T09:18:23;9.43;;;5.80;;
3597;SDS011;1813;52.016;8.714;2023-03-17T09:21:03;6.07;;;5.00;;
3597;SDS011;1813;52.016;8.714;2023-03-17T09:23:39;7.77;;;5.33;;
3597;SDS011;1813;52.016;8.714;2023-03-17T09:26:13;6.63;;;5.23;;
3597;SDS011;1813;52.016;8.714;2023-03-17T09:28:48;6.70;;;4.70;;
3597;SDS011;1813;52.016;8.714;2023-03-17T09:31:22;8.07;;;5.10;;
3597;SDS011;1813;52.016;8.714;2023-03-17T09:33:57;9.03;;;5.63;;
3597;SDS011;1813;52.016;8.714;2023-03-17T09:36:33;8.73;;;5.43;;
3597;SDS011;1813;52.016;8.714;2023-03-17T09:39:07;9.93;;;5.20;;
3597;SDS011;1813;52.016;8.714;2023-03-17T09:41:48;7.73;;;5.03;;
3597;SDS011;1813;52.016;8.714;2023-03-17T09:44:34;7.10;;;5.00;;
3597;SDS011;1813;52.016;8.714;2023-03-17T09:47:26;7.80;;;5.20;;
3597;SDS011;1813;52.016;8.714;2023-03-17T09:50:21;8.13;;;4.50;;
3597;SDS011;1813;52.016;8.714;2023-03-17T09:53:00;7.57;;;4.70;;
3597;SDS011;1813;52.016;8.714;2023-03-17T09:55:37;6.67;;;4.60;;
3597;SDS011;1813;52.016;8.714;2023-03-17T09:58:12;6.10;;;4.20;;
3597;SDS011;1813;52.016;8.714;2023-03-17T10:00:46;3.93;;;3.50;;
3597;SDS011;1813;52.016;8.714;2023-03-17T10:03:21;8.27;;;3.20;;
3597;SDS011;1813;52.016;8.714;2023-03-17T10:05:58;4.50;;;3.33;;
3597;SDS011;1813;52.016;8.714;2023-03-17T10:08:50;4.30;;;3.20;;
3597;SDS011;1813;52.016;8.714;2023-03-17T10:11:34;7.20;;;4.03;;
3597;SDS011;1813;52.016;8.714;2023-03-17T10:14:26;4.10;;;3.43;;
3597;SDS011;1813;52.016;8.714;2023-03-17T10:17:09;4.10;;;3.07;;
3597;SDS011;1813;52.016;8.714;2023-03-17T10:19:53;5.23;;;3.40;;
3597;SDS011;1813;52.016;8.714;2023-03-17T10:22:31;5.70;;;3.20;;
3597;SDS011;1813;52.016;8.714;2023-03-17T10:25:16;7.27;;;3.20;;
3597;SDS011;1813;52.016;8.714;2023-03-17T10:27:52;4.77;;;3.30;;
3597;SDS011;1813;52.016;8.714;2023-03-17T10:30:31;4.90;;;3.17;;
3597;SDS011;1813;52.016;8.714;2023-03-17T10:33:05;5.83;;;3.60;;
3597;SDS011;1813;52.016;8.714;2023-03-17T10:35:40;4.80;;;3.17;;
3597;SDS011;1813;52.016;8.714;2023-03-17T10:38:16;6.57;;;3.37;;
3597;SDS011;1813;52.016;8.714;2023-03-17T10:40:56;4.10;;;3.33;;
3597;SDS011;1813;52.016;8.714;2023-03-17T10:43:40;3.70;;;2.93;;
3597;SDS011;1813;52.016;8.714;2023-03-17T10:46:18;5.13;;;3.47;;
3597;SDS011;1813;52.016;8.714;2023-03-17T10:49:02;5.43;;;3.30;;
3597;SDS011;1813;52.016;8.714;2023-03-17T10:51:41;6.13;;;3.13;;
3597;SDS011;1813;52.016;8.714;2023-03-17T10:54:20;4.43;;;3.17;;
3597;SDS011;1813;52.016;8.714;2023-03-17T10:57:01;5.93;;;3.20;;
3597;SDS011;1813;52.016;8.714;2023-03-17T10:59:41;4.73;;;3.20;;
3597;SDS011;1813;52.016;8.714;2023-03-17T11:02:25;6.30;;;3.30;;
3597;SDS011;1813;52.016;8.714;2023-03-17T11:05:04;8.23;;;3.13;;
3597;SDS011;1813;52.016;8.714;2023-03-17T11:07:40;5.63;;;3.07;;
3597;SDS011;1813;52.016;8.714;2023-03-17T11:10:16;4.33;;;3.47;;
3597;SDS011;1813;52.016;8.714;2023-03-17T11:12:57;5.13;;;3.37;;
3597;SDS011;1813;52.016;8.714;2023-03-17T11:15:34;4.83;;;2.97;;
3597;SDS011;1813;52.016;8.714;2023-03-17T11:18:12;5.30;;;3.20;;
3597;SDS011;1813;52.016;8.714;2023-03-17T11:20:52;3.20;;;2.83;;
3597;SDS011;1813;52.016;8.714;2023-03-17T11:23:33;3.83;;;3.00;;
3597;SDS011;1813;52.016;8.714;2023-03-17T11:26:30;5.87;;;3.20;;
3597;SDS011;1813;52.016;8.714;2023-03-17T11:29:25;6.30;;;3.40;;
3597;SDS011;1813;52.016;8.714;2023-03-17T11:32:12;5.13;;;2.90;;
3597;SDS011;1813;52.016;8.714;2023-03-17T11:38:08;3.70;;;2.90;;
3597;SDS011;1813;52.016;8.714;2023-03-17T11:41:06;5.33;;;2.97;;
3597;SDS011;1813;52.016;8.714;2023-03-17T11:44:04;5.47;;;3.50;;
3597;SDS011;1813;52.016;8.714;2023-03-17T11:46:55;7.40;;;3.80;;
3597;SDS011;1813;52.016;8.714;2023-03-17T11:49:39;5.93;;;3.90;;
3597;SDS011;1813;52.016;8.714;2023-03-17T11:52:15;4.03;;;3.33;;
3597;SDS011;1813;52.016;8.714;2023-03-17T11:54:59;7.13;;;3.40;;
3597;SDS011;1813;52.016;8.714;2023-03-17T11:57:44;6.00;;;3.93;;
3597;SDS011;1813;52.016;8.714;2023-03-17T12:00:26;4.10;;;3.50;;
3597;SDS011;1813;52.016;8.714;2023-03-17T12:03:10;8.93;;;3.33;;
3597;SDS011;1813;52.016;8.714;2023-03-17T12:05:50;5.53;;;3.30;;
3597;SDS011;1813;52.016;8.714;2023-03-17T12:08:32;7.67;;;3.20;;
3597;SDS011;1813;52.016;8.714;2023-03-17T12:11:11;5.60;;;3.00;;
3597;SDS011;1813;52.016;8.714;2023-03-17T12:13:52;4.13;;;3.10;;
3597;SDS011;1813;52.016;8.714;2023-03-17T12:16:32;7.83;;;3.17;;
3597;SDS011;1813;52.016;8.714;2023-03-17T12:19:14;4.47;;;2.97;;
3597;SDS011;1813;52.016;8.714;2023-03-17T12:21:52;7.87;;;3.40;;
3597;SDS011;1813;52.016;8.714;2023-03-17T12:24:32;6.13;;;3.40;;
3597;SDS011;1813;52.016;8.714;2023-03-17T12:27:13;4.90;;;3.40;;
3597;SDS011;1813;52.016;8.714;2023-03-17T12:29:52;5.83;;;3.50;;
3597;SDS011;1813;52.016;8.714;2023-03-17T12:32:33;7.13;;;3.00;;
3597;SDS011;1813;52.016;8.714;2023-03-17T12:35:21;5.87;;;3.47;;
3597;SDS011;1813;52.016;8.714;2023-03-17T12:37:58;5.37;;;3.40;;
3597;SDS011;1813;52.016;8.714;2023-03-17T12:40:35;4.90;;;3.30;;
3597;SDS011;1813;52.016;8.714;2023-03-17T12:46:25;5.80;;;3.20;;
3597;SDS011;1813;52.016;8.714;2023-03-17T12:52:31;6.13;;;2.90;;
3597;SDS011;1813;52.016;8.714;2023-03-17T12:55:14;4.00;;;3.17;;
3597;SDS011;1813;52.016;8.714;2023-03-17T12:57:56;3.57;;;2.50;;
3597;SDS011;1813;52.016;8.714;2023-03-17T13:00:33;3.47;;;2.40;;
3597;SDS011;1813;52.016;8.714;2023-03-17T13:03:21;5.10;;;2.67;;
3597;SDS011;1813;52.016;8.714;2023-03-17T13:06:00;3.10;;;2.80;;
3597;SDS011;1813;52.016;8.714;2023-03-17T13:08:39;6.77;;;2.57;;
3597;SDS011;1813;52.016;8.714;2023-03-17T13:11:14;5.80;;;2.70;;
3597;SDS011;1813;52.016;8.714;2023-03-17T13:13:55;4.90;;;2.80;;
3597;SDS011;1813;52.016;8.714;2023-03-17T13:16:39;3.83;;;2.70;;
3597;SDS011;1813;52.016;8.714;2023-03-17T13:19:17;5.23;;;2.90;;
3597;SDS011;1813;52.016;8.714;2023-03-17T13:22:22;4.33;;;2.80;;
3597;SDS011;1813;52.016;8.714;2023-03-17T13:25:17;6.70;;;2.67;;
3597;SDS011;1813;52.016;8.714;2023-03-17T13:28:16;3.40;;;2.90;;
3597;SDS011;1813;52.016;8.714;2023-03-17T13:31:10;6.60;;;3.30;;
3597;SDS011;1813;52.016;8.714;2023-03-17T13:34:13;7.00;;;2.57;;
3597;SDS011;1813;52.016;8.714;2023-03-17T13:36:52;9.70;;;2.80;;
3597;SDS011;1813;52.016;8.714;2023-03-17T13:39:49;4.87;;;2.93;;
3597;SDS011;1813;52.016;8.714;2023-03-17T13:42:50;6.83;;;3.30;;
3597;SDS011;1813;52.016;8.714;2023-03-17T13:45:35;4.40;;;3.23;;
3597;SDS011;1813;52.016;8.714;2023-03-17T13:48:26;9.93;;;3.13;;
3597;SDS011;1813;52.016;8.714;2023-03-17T13:51:10;4.50;;;3.00;;
3597;SDS011;1813;52.016;8.714;2023-03-17T13:53:52;6.50;;;3.30;;
3597;SDS011;1813;52.016;8.714;2023-03-17T13:56:44;5.93;;;3.27;;
3597;SDS011;1813;52.016;8.714;2023-03-17T13:59:23;6.30;;;3.20;;
3597;SDS011;1813;52.016;8.714;2023-03-17T14:02:11;6.50;;;3.33;;
3597;SDS011;1813;52.016;8.714;2023-03-17T14:04:49;5.53;;;3.30;;
3597;SDS011;1813;52.016;8.714;2023-03-17T14:07:28;8.10;;;3.17;;
3597;SDS011;1813;52.016;8.714;2023-03-17T14:10:11;5.87;;;2.97;;
3597;SDS011;1813;52.016;8.714;2023-03-17T14:12:49;6.60;;;3.17;;
3597;SDS011;1813;52.016;8.714;2023-03-17T14:15:32;6.30;;;3.40;;
3597;SDS011;1813;52.016;8.714;2023-03-17T14:18:16;5.93;;;3.10;;
3597;SDS011;1813;52.016;8.714;2023-03-17T14:20:51;7.37;;;3.50;;
3597;SDS011;1813;52.016;8.714;2023-03-17T14:23:27;5.23;;;2.80;;
3597;SDS011;1813;52.016;8.714;2023-03-17T14:26:02;5.80;;;3.50;;
3597;SDS011;1813;52.016;8.714;2023-03-17T14:28:37;5.47;;;3.00;;
3597;SDS011;1813;52.016;8.714;2023-03-17T14:31:20;6.50;;;3.10;;
3597;SDS011;1813;52.016;8.714;2023-03-17T14:33:57;8.30;;;3.57;;
3597;SDS011;1813;52.016;8.714;2023-03-17T14:36:31;5.13;;;3.30;;
3597;SDS011;1813;52.016;8.714;2023-03-17T14:39:06;6.33;;;3.37;;
3597;SDS011;1813;52.016;8.714;2023-03-17T14:41:58;6.77;;;3.63;;
3597;SDS011;1813;52.016;8.714;2023-03-17T14:44:36;8.90;;;3.60;;
3597;SDS011;1813;52.016;8.714;2023-03-17T14:47:16;6.83;;;3.30;;
3597;SDS011;1813;52.016;8.714;2023-03-17T14:49:52;5.17;;;3.60;;
3597;SDS011;1813;52.016;8.714;2023-03-17T14:52:27;6.73;;;3.67;;
3597;SDS011;1813;52.016;8.714;2023-03-17T14:55:05;7.63;;;3.80;;
3597;SDS011;1813;52.016;8.714;2023-03-17T14:57:40;4.30;;;3.37;;
3597;SDS011;1813;52.016;8.714;2023-03-17T15:00:25;4.73;;;3.20;;
3597;SDS011;1813;52.016;8.714;2023-03-17T15:03:17;5.03;;;3.27;;
3597;SDS011;1813;52.016;8.714;2023-03-17T15:06:01;9.73;;;3.70;;
3597;SDS011;1813;52.016;8.714;2023-03-17T15:08:38;10.93;;;2.87;;
3597;SDS011;1813;52.016;8.714;2023-03-17T15:11:19;9.40;;;2.93;;
3597;SDS011;1813;52.016;8.714;2023-03-17T15:14:02;4.83;;;2.97;;
3597;SDS011;1813;52.016;8.714;2023-03-17T15:16:37;6.93;;;3.10;;
3597;SDS011;1813;52.016;8.714;2023-03-17T15:19:20;5.17;;;3.47;;
3597;SDS011;1813;52.016;8.714;2023-03-17T15:21:57;4.43;;;3.00;;
3597;SDS011;1813;52.016;8.714;2023-03-17T15:24:33;3.50;;;2.73;;
3597;SDS011;1813;52.016;8.714;2023-03-17T15:27:12;6.00;;;2.70;;
3597;SDS011;1813;52.016;8.714;2023-03-17T15:29:47;5.10;;;2.70;;
3597;SDS011;1813;52.016;8.714;2023-03-17T15:32:22;6.60;;;2.50;;
3597;SDS011;1813;52.016;8.714;2023-03-17T15:34:59;6.93;;;3.00;;
3597;SDS011;1813;52.016;8.714;2023-03-17T15:37:33;4.33;;;2.83;;
3597;SDS011;1813;52.016;8.714;2023-03-17T15:40:08;3.80;;;2.77;;
3597;SDS011;1813;52.016;8.714;2023-03-17T15:42:43;6.47;;;2.67;;
3597;SDS011;1813;52.016;8.714;2023-03-17T15:45:17;5.40;;;2.63;;
3597;SDS011;1813;52.016;8.714;2023-03-17T15:47:51;2.53;;;2.27;;
3597;SDS011;1813;52.016;8.714;2023-03-17T15:50:29;5.47;;;2.70;;
3597;SDS011;1813;52.016;8.714;2023-03-17T15:53:04;5.40;;;2.97;;
3597;SDS011;1813;52.016;8.714;2023-03-17T15:55:38;3.80;;;2.43;;
3597;SDS011;1813;52.016;8.714;2023-03-17T15:58:12;4.30;;;2.87;;
3597;SDS011;1813;52.016;8.714;2023-03-17T16:00:47;8.43;;;4.60;;
3597;SDS011;1813;52.016;8.714;2023-03-17T16:03:26;4.77;;;3.20;;
3597;SDS011;1813;52.016;8.714;2023-03-17T16:06:10;6.27;;;3.40;;
3597;SDS011;1813;52.016;8.714;2023-03-17T16:08:47;5.13;;;2.93;;
3597;SDS011;1813;52.016;8.714;2023-03-17T16:11:22;7.20;;;3.40;;
3597;SDS011;1813;52.016;8.714;2023-03-17T16:14:00;4.43;;;2.80;;
3597;SDS011;1813;52.016;8.714;2023-03-17T16:16:34;7.57;;;2.90;;
3597;SDS011;1813;52.016;8.714;2023-03-17T16:19:13;5.33;;;3.23;;
3597;SDS011;1813;52.016;8.714;2023-03-17T16:21:56;6.23;;;3.00;;
3597;SDS011;1813;52.016;8.714;2023-03-17T16:24:30;7.40;;;3.53;;
3597;SDS011;1813;52.016;8.714;2023-03-17T16:27:08;6.13;;;3.80;;
3597;SDS011;1813;52.016;8.714;2023-03-17T16:29:47;5.57;;;3.40;;